Pagina principale
METAR-TAF:

METAR-TAF

Aeroporti :

Aeroporto di Cervia-Pisignano

Cervia, Italia

latitudine: 44-13N, longitudine: 012-18E, altezza: 6 m

Osservazione

Il bollettino è stato emesso 1 ora e 7 minuti fa, alle 09:55 UTC
Vento 6 kt da est/nord-est
Temperature 23°C
Umidità 65%
Pressione 1027 hPa
Visibilità 10 km o più
nessuna nube inferiore a 1500 m e nessun cumulonembo

METAR: LIPC 190955Z 07006KT CAVOK 23/16 Q1027

Ora: 13:02 (11:02 UTC)

Previsione

Il bollettino è stato emesso 3 ore e 2 minuti fa, alle 08:00 UTC
Previsione valida dal 19 alle 09 UTC al 19 alle 18 UTC
Vento 8 kt da est/nord-est
Visibilità 10 km o più
nessuna nube inferiore a 1500 m e nessun cumulonembo
Temporaneamente
dal 19 alle 13 UTC al 19 alle 17 UTC
Vento 15 kt da est

TAF: LIPC 190800Z 1909/1918 06008KT CAVOK TEMPO 1913/1917 10015KT

Osservazioni e previsioni meteorologiche di più di 4000 aeroporti (messaggi METAR e TAF).

Le stazioni disponibili sono rappresentate dai dischi gialli e rossi sulla carta.

Puntare il mouse per vedere il nome della stazione.

Clicca sopra per visualizzare le osservazioni e previsioni meteorologiche.

Per cambiare la mappa : fare clic sui pulsanti verdi con una croce nera per ingrandire, il pulsante verde con un trattino per diminuire, o sulla freccia verde per le mappe adiacenti.


METAR-TAF: